Time;durP1;ratioP1;P1;durP2;ratioP2;P2;SDS_P1;SDS_P2;PMS_P1;PMS_P2;Temp;Humidity;BMP_temperature;BMP_pressure;BME280_temperature;BME280_humidity;BME280_pressure;Samples;Min_cycle;Max_cycle;Signal;HPM_P1;HPM_P2
2023/08/09 00:04:55;;;;;;;3.75;1.50;;;;;;;14.84;68.31;100658.19;15660530;28;20528;-52
2023/08/09 00:12:30;;;;;;;5.60;1.60;;;;;;;14.96;67.78;100647.31;15660741;28;20421;-55
2023/08/09 00:20:04;;;;;;;7.07;1.77;;;;;;;14.70;68.44;100656.84;15615233;28;20049;-55
2023/08/09 00:27:39;;;;;;;3.67;1.65;;;;;;;14.68;68.75;100658.94;15613807;28;20494;-57
2023/08/09 00:35:12;;;;;;;2.80;1.63;;;;;;;14.78;68.58;100661.84;15614038;28;20100;-57
2023/08/09 00:42:46;;;;;;;3.33;1.40;;;;;;;14.57;69.02;100667.91;15613431;28;20129;-55
2023/08/09 00:50:19;;;;;;;3.05;1.58;;;;;;;14.68;68.34;100691.34;15613561;28;20064;-57
2023/08/09 00:57:54;;;;;;;4.50;1.50;;;;;;;14.51;69.49;100661.56;15622970;28;20034;-58
2023/08/09 01:05:38;;;;;;;2.13;1.40;;;;;;;14.61;69.65;100666.38;15626006;28;20490;-56
2023/08/09 01:13:19;;;;;;;3.30;1.70;;;;;;;14.87;68.54;100664.97;15647263;28;20033;-53
2023/08/09 01:20:56;;;;;;;4.45;1.30;;;;;;;14.28;70.62;100679.41;15669807;28;20067;-55
2023/08/09 01:28:31;;;;;;;5.50;1.50;;;;;;;14.58;70.17;100683.03;15668393;28;20402;-55
2023/08/09 01:36:07;;;;;;;2.65;1.35;;;;;;;14.45;69.82;100681.38;15668336;28;20048;-57
2023/08/09 01:43:43;;;;;;;3.97;1.52;;;;;;;14.27;69.58;100682.38;15685907;28;20107;-57
2023/08/09 01:51:17;;;;;;;4.75;1.63;;;;;;;14.72;68.76;100646.59;15685580;28;20126;-56
2023/08/09 01:58:56;;;;;;;3.38;1.40;;;;;;;14.64;69.32;100669.41;15685246;28;20052;-59
2023/08/09 02:06:31;;;;;;;4.45;1.50;;;;;;;14.23;70.21;100606.41;15666454;28;20136;-57
2023/08/09 02:14:07;;;;;;;4.10;1.80;;;;;;;14.72;68.95;100666.31;15635936;28;20048;-58
2023/08/09 02:21:42;;;;;;;5.50;2.15;;;;;;;14.64;69.36;100666.72;15603667;28;20522;-56
2023/08/09 02:29:16;;;;;;;4.18;1.92;;;;;;;14.34;70.99;100669.53;15619498;28;20099;-57
2023/08/09 02:36:49;;;;;;;4.53;2.15;;;;;;;14.68;69.49;100667.03;15619790;28;20049;-53
2023/08/09 02:44:24;;;;;;;4.15;2.03;;;;;;;14.56;69.68;100652.75;15645823;28;20128;-57
2023/08/09 02:51:58;;;;;;;5.50;2.20;;;;;;;14.47;72.00;100672.00;15681244;28;20044;-56
2023/08/09 02:59:44;;;;;;;6.72;2.40;;;;;;;14.66;71.21;100667.28;15679768;28;20073;-56
2023/08/09 03:07:18;;;;;;;2.35;1.98;;;;;;;14.97;70.14;100666.03;15680529;28;20041;-56
2023/08/09 03:14:53;;;;;;;7.18;2.40;;;;;;;14.84;69.64;100674.41;15661973;28;20489;-57
2023/08/09 03:22:27;;;;;;;6.47;2.53;;;;;;;14.03;73.31;100692.31;15661680;28;20048;-57
2023/08/09 03:30:05;;;;;;;8.10;2.40;;;;;;;14.52;71.39;100685.63;15661707;28;20048;-55
2023/08/09 03:37:38;;;;;;;4.20;2.40;;;;;;;14.11;73.64;100702.78;15679352;28;20048;-57
2023/08/09 03:45:17;;;;;;;5.93;2.78;;;;;;;14.08;73.31;100705.94;15661385;28;20041;-57
2023/08/09 03:52:51;;;;;;;4.82;2.70;;;;;;;14.38;72.39;100707.69;15660219;28;20037;-56
2023/08/09 04:00:26;;;;;;;6.35;2.65;;;;;;;14.51;71.25;100694.00;15660047;28;20116;-53
2023/08/09 04:08:01;;;;;;;5.32;2.67;;;;;;;14.20;72.28;100722.16;15660123;28;20056;-56
2023/08/09 04:15:36;;;;;;;6.28;2.63;;;;;;;14.00;73.61;100725.19;15617485;28;20434;-57
2023/08/09 04:23:09;;;;;;;7.78;3.15;;;;;;;14.32;72.43;100730.25;15614892;28;20050;-55
2023/08/09 04:30:44;;;;;;;4.63;3.08;;;;;;;14.20;73.00;100731.06;15621074;28;20049;-57
2023/08/09 04:38:17;;;;;;;5.53;3.00;;;;;;;13.76;75.67;100743.22;15625956;28;20137;-57
2023/08/09 04:45:51;;;;;;;5.78;3.13;;;;;;;13.79;75.51;100759.75;15609778;28;20049;-56
2023/08/09 04:53:24;;;;;;;6.28;3.63;;;;;;;14.43;73.47;100767.22;15626575;28;20046;-56
2023/08/09 05:00:59;;;;;;;9.90;3.90;;;;;;;14.39;73.93;100766.03;15624906;28;20568;-54
2023/08/09 05:08:32;;;;;;;6.00;3.50;;;;;;;14.28;74.29;100770.41;15624955;28;20049;-57
2023/08/09 05:16:07;;;;;;;7.88;3.20;;;;;;;14.65;72.68;100772.91;15673763;28;20676;-57
2023/08/09 05:23:39;;;;;;;7.03;3.45;;;;;;;14.59;72.46;100790.84;15653138;28;20128;-56
2023/08/09 05:31:14;;;;;;;4.30;3.10;;;;;;;14.38;73.01;100791.41;15669542;28;20040;-54
2023/08/09 05:38:47;;;;;;;5.70;3.03;;;;;;;14.73;73.05;100788.72;15685582;28;20040;-56
2023/08/09 05:46:24;;;;;;;7.60;3.10;;;;;;;14.76;72.69;100794.47;15668382;28;20573;-56
2023/08/09 05:53:57;;;;;;;4.07;2.70;;;;;;;14.51;72.45;100796.63;15685118;28;20136;-57
2023/08/09 06:01:31;;;;;;;;;;;;;;;15.74;69.33;100792.69;15667421;28;20510;-54
2023/08/09 06:09:05;;;;;;;4.18;2.70;;;;;;;15.69;68.85;100791.78;15667773;28;19936;-57
2023/08/09 06:16:40;;;;;;;6.13;2.15;;;;;;;15.71;69.33;100801.28;15694008;22;20049;-47
2023/08/09 06:24:14;;;;;;;4.47;2.10;;;;;;;15.60;68.07;100801.31;15684047;28;20072;-49
2023/08/09 06:31:50;;;;;;;4.13;2.00;;;;;;;15.15;68.86;100812.88;15664569;28;20386;-47
2023/08/09 06:39:24;;;;;;;7.68;2.00;;;;;;;15.33;69.47;100801.88;15664463;28;20383;-47
2023/08/09 06:46:59;;;;;;;2.70;1.38;;;;;;;16.28;66.95;100812.03;15682064;28;20048;-49
2023/08/09 06:54:32;;;;;;;5.55;1.27;;;;;;;16.47;62.87;100811.78;15663296;28;20509;-52
2023/08/09 07:02:08;;;;;;;6.78;1.17;;;;;;;16.41;62.12;100820.88;15682130;28;20150;-50
2023/08/09 07:09:42;;;;;;;3.80;1.38;;;;;;;17.00;62.18;100826.69;15680772;28;20045;-48
2023/08/09 07:17:16;;;;;;;4.88;1.30;;;;;;;16.93;60.30;100826.06;15679862;28;20128;-51
2023/08/09 07:24:49;;;;;;;7.93;1.38;;;;;;;16.78;58.28;100830.16;15679813;28;20041;-53
2023/08/09 07:32:25;;;;;;;9.48;1.25;;;;;;;17.30;59.12;100837.94;15661558;28;20037;-50
2023/08/09 07:39:58;;;;;;;6.68;0.90;;;;;;;17.73;54.32;100843.56;15679179;28;20041;-51
2023/08/09 07:47:33;;;;;;;6.95;1.20;;;;;;;18.14;55.46;100857.56;15661629;28;20052;-48
2023/08/09 07:55:08;;;;;;;7.75;1.20;;;;;;;19.08;52.80;100865.13;15694911;28;20049;-49
2023/08/09 08:02:44;;;;;;;7.88;1.50;;;;;;;18.20;52.15;100876.41;15677421;28;20484;-50
2023/08/09 08:10:18;;;;;;;10.75;1.30;;;;;;;17.73;52.17;100884.31;15678338;28;20126;-48
2023/08/09 08:17:54;;;;;;;8.80;1.30;;;;;;;18.30;54.94;100887.34;15616429;28;20107;-49
2023/08/09 08:25:26;;;;;;;6.55;1.00;;;;;;;18.77;50.59;100892.13;15597274;28;20049;-50
2023/08/09 08:33:01;;;;;;;5.68;1.20;;;;;;;19.07;52.43;100891.53;15597744;28;20041;-51
2023/08/09 08:40:35;;;;;;;6.78;1.30;;;;;;;17.99;52.01;100888.13;15597804;28;20099;-50
2023/08/09 08:48:10;;;;;;;7.65;0.98;;;;;;;19.50;50.10;100897.72;15665143;28;20080;-50
2023/08/09 08:55:43;;;;;;;5.20;1.17;;;;;;;19.49;49.94;100908.84;15676662;28;20048;-50
2023/08/09 09:03:19;;;;;;;3.72;0.90;;;;;;;19.98;46.90;100922.97;15676246;28;20120;-49
2023/08/09 09:10:54;;;;;;;4.30;0.95;;;;;;;19.04;51.57;100924.69;15676048;28;20467;-48
2023/08/09 09:18:30;;;;;;;4.55;0.90;;;;;;;19.80;48.78;100926.19;15666167;28;20604;-50
2023/08/09 09:26:09;;;;;;;2.67;0.50;;;;;;;19.90;48.97;100930.84;15687227;28;20494;-49
2023/08/09 09:33:49;;;;;;;6.68;0.80;;;;;;;19.64;48.89;100933.47;15686841;28;20398;-50
2023/08/09 09:41:24;;;;;;;3.22;0.80;;;;;;;19.37;51.78;100945.28;15686844;28;20052;-47
2023/08/09 09:49:04;;;;;;;3.33;0.70;;;;;;;20.20;46.58;100941.03;15668016;28;20060;-50
2023/08/09 09:56:41;;;;;;;4.13;0.85;;;;;;;20.77;45.99;100943.53;15686050;28;20072;-49
2023/08/09 10:04:18;;;;;;;5.63;1.17;;;;;;;20.23;47.92;100937.72;15685130;28;20071;-48
2023/08/09 10:11:55;;;;;;;4.97;1.02;;;;;;;21.11;47.66;100932.84;15671801;28;20049;-52
2023/08/09 10:19:30;;;;;;;5.32;0.75;;;;;;;21.17;44.87;100930.13;15603954;28;20056;-51
2023/08/09 10:27:05;;;;;;;4.80;0.80;;;;;;;21.81;44.22;100935.66;15621833;28;20046;-49
2023/08/09 10:34:41;;;;;;;4.38;1.10;;;;;;;22.00;44.10;100933.09;15621442;28;20045;-51
2023/08/09 10:42:14;;;;;;;5.30;0.90;;;;;;;20.65;44.65;100956.63;15602354;28;20144;-52
2023/08/09 10:50:06;;;;;;;5.78;0.70;;;;;;;20.50;44.10;100959.34;15620170;28;20445;-53
2023/08/09 10:57:41;;;;;;;7.20;1.00;;;;;;;20.44;47.13;100963.97;15620746;28;20695;-51
2023/08/09 11:05:17;;;;;;;5.53;1.23;;;;;;;18.70;57.21;100994.03;15603270;28;20069;-50
2023/08/09 11:12:50;;;;;;;6.30;1.00;;;;;;;18.86;58.05;100996.63;15621478;28;20045;-51
2023/08/09 11:20:25;;;;;;;3.70;0.98;;;;;;;19.34;54.55;100986.63;15664518;28;20041;-49
2023/08/09 11:27:59;;;;;;;3.80;0.77;;;;;;;19.78;48.44;100986.38;15681353;28;20440;-51
2023/08/09 11:35:39;;;;;;;4.82;0.93;;;;;;;19.32;47.59;100980.66;15662091;28;20049;-48
2023/08/09 11:43:15;;;;;;;3.10;0.80;;;;;;;20.96;45.48;100973.00;15660250;28;20500;-49
2023/08/09 11:51:01;;;;;;;3.05;0.70;;;;;;;21.03;44.33;100985.31;15643771;28;20045;-50
2023/08/09 11:58:36;;;;;;;4.72;0.60;;;;;;;20.08;45.84;100988.38;15660498;28;20110;-54
2023/08/09 12:06:11;;;;;;;2.10;0.60;;;;;;;20.41;45.64;101002.66;15678079;28;20045;-51
2023/08/09 12:13:44;;;;;;;3.47;0.60;;;;;;;21.45;42.85;101008.75;15665370;22;20567;-54
2023/08/09 12:21:19;;;;;;;2.35;0.65;;;;;;;22.21;42.13;100998.66;15616824;28;20120;-54
2023/08/09 12:28:52;;;;;;;3.25;0.88;;;;;;;22.67;40.34;100996.47;15617979;28;20049;-51
2023/08/09 12:36:28;;;;;;;3.80;0.82;;;;;;;22.78;41.23;101014.44;15615621;28;20092;-54
2023/08/09 12:44:01;;;;;;;4.80;0.93;;;;;;;22.97;39.91;101002.81;15615280;28;20049;-53
2023/08/09 12:51:37;;;;;;;2.90;0.80;;;;;;;21.89;42.60;101025.28;15603368;28;20037;-55
2023/08/09 12:59:10;;;;;;;4.75;0.88;;;;;;;22.55;39.94;101028.81;15627438;28;20049;-54
2023/08/09 13:06:45;;;;;;;2.63;0.73;;;;;;;22.00;41.27;101030.69;15611331;28;20073;-53
2023/08/09 13:14:18;;;;;;;2.35;0.80;;;;;;;21.61;44.02;101039.56;15626011;28;20050;-53
2023/08/09 13:21:53;;;;;;;4.15;0.82;;;;;;;20.46;44.00;101049.03;15607776;28;20517;-52
2023/08/09 13:29:26;;;;;;;4.43;1.00;;;;;;;20.00;48.11;101083.44;15590842;28;20061;-56
2023/08/09 13:37:00;;;;;;;3.67;0.63;;;;;;;17.51;56.91;101123.13;15625005;28;20045;-53
2023/08/09 13:44:33;;;;;;;3.67;0.80;;;;;;;16.12;70.15;101155.94;15606580;28;20124;-53
2023/08/09 13:52:08;;;;;;;;;;;;;;;15.69;71.28;101166.06;15607021;28;20117;-58
2023/08/09 13:59:43;;;;;;;2.30;0.60;;;;;;;15.89;72.65;101160.31;15624258;28;19929;-54
2023/08/09 14:07:17;;;;;;;2.85;0.45;;;;;;;16.80;70.10;101149.81;15623280;28;20046;-54
2023/08/09 14:14:51;;;;;;;2.00;0.55;;;;;;;16.87;69.10;101152.38;15586424;28;20042;-54
2023/08/09 14:22:28;;;;;;;2.42;0.50;;;;;;;16.87;71.18;101152.38;15559303;28;20050;-51
2023/08/09 14:30:01;;;;;;;0.98;0.40;;;;;;;16.68;68.79;101157.94;15560234;28;20092;-52
2023/08/09 14:37:36;;;;;;;2.08;0.50;;;;;;;16.80;68.64;101145.22;15560107;28;20514;-54
2023/08/09 14:45:10;;;;;;;3.17;0.73;;;;;;;16.59;68.68;101154.78;15586111;28;20046;-54
2023/08/09 14:52:45;;;;;;;2.90;0.50;;;;;;;17.64;66.50;101160.81;15603685;28;20105;-55
2023/08/09 15:00:18;;;;;;;2.35;0.40;;;;;;;18.20;65.87;101152.72;15602761;28;20045;-54
2023/08/09 15:07:54;;;;;;;2.78;0.95;;;;;;;18.75;63.49;101155.34;15601845;28;20057;-55
2023/08/09 15:15:27;;;;;;;1.08;0.40;;;;;;;18.91;59.60;101158.25;15600097;28;20041;-55
2023/08/09 15:23:04;;;;;;;3.13;0.88;;;;;;;18.68;59.64;101173.72;15601193;28;20038;-54
2023/08/09 15:30:38;;;;;;;1.33;0.50;;;;;;;18.29;59.64;101170.25;15617965;28;20053;-52
2023/08/09 15:38:13;;;;;;;2.25;0.40;;;;;;;18.28;59.61;101180.28;15618373;28;20120;-51
2023/08/09 15:45:46;;;;;;;1.60;0.50;;;;;;;18.78;57.97;101190.19;15600749;28;20490;-53
2023/08/09 15:53:22;;;;;;;2.00;0.63;;;;;;;18.68;59.42;101191.94;15617239;28;20164;-52
2023/08/09 16:00:56;;;;;;;1.83;0.70;;;;;;;18.86;57.30;101197.09;15616621;28;20041;-55
2023/08/09 16:08:31;;;;;;;2.47;0.80;;;;;;;18.33;56.22;101188.50;15616421;28;20509;-54
2023/08/09 16:16:06;;;;;;;3.22;0.90;;;;;;;18.47;58.19;101196.31;15553617;28;20048;-51
2023/08/09 16:23:40;;;;;;;2.90;0.80;;;;;;;18.30;58.21;101204.50;15557830;28;20068;-50
2023/08/09 16:31:13;;;;;;;2.20;1.10;;;;;;;18.07;59.75;101209.03;15574009;28;20606;-52
2023/08/09 16:38:48;;;;;;;3.67;1.05;;;;;;;18.02;58.46;101211.69;15575104;28;20081;-55
2023/08/09 16:46:21;;;;;;;3.47;0.90;;;;;;;17.86;59.64;101228.81;15574639;28;20427;-52
2023/08/09 16:53:56;;;;;;;3.17;0.80;;;;;;;17.62;59.35;101224.56;15556948;28;20052;-50
2023/08/09 17:01:29;;;;;;;4.40;1.05;;;;;;;17.55;60.17;101228.25;15572565;28;20492;-53
2023/08/09 17:09:03;;;;;;;;;;;;;;;17.65;58.59;101219.47;15573287;28;20042;-54
2023/08/09 17:16:36;;;;;;;2.63;0.90;;;;;;;18.31;58.99;101206.13;15624754;28;19921;-54
2023/08/09 17:24:11;;;;;;;5.45;1.10;;;;;;;17.61;59.53;101218.31;15635871;28;20041;-51
2023/08/09 17:31:44;;;;;;;5.80;2.10;;;;;;;17.81;58.41;101220.56;15634843;28;20100;-51
2023/08/09 17:39:19;;;;;;;6.93;1.77;;;;;;;17.81;59.79;101234.16;15608873;28;20072;-51
2023/08/09 17:46:53;;;;;;;6.15;1.63;;;;;;;18.12;58.68;101227.31;15607585;28;20042;-51
2023/08/09 17:54:27;;;;;;;3.78;1.33;;;;;;;18.13;59.92;101233.56;15624360;28;20126;-54
2023/08/09 18:02:00;;;;;;;4.32;1.23;;;;;;;17.34;61.98;101239.81;15623686;28;20091;-54
2023/08/09 18:09:35;;;;;;;3.97;1.70;;;;;;;17.73;61.49;101245.41;15605363;28;20049;-51
2023/08/09 18:17:08;;;;;;;5.50;1.25;;;;;;;18.22;60.38;101257.34;15671420;23;20045;-49
2023/08/09 18:24:42;;;;;;;5.03;1.70;;;;;;;18.24;59.94;101266.09;15664585;28;20055;-50
2023/08/09 18:32:15;;;;;;;3.90;1.42;;;;;;;18.31;57.28;101269.44;15682537;28;20413;-50
2023/08/09 18:39:49;;;;;;;;;;;;;;;18.21;56.95;101280.16;15682651;28;20075;-49
2023/08/09 18:47:22;;;;;;;6.05;2.00;;;;;;;18.40;57.98;101278.00;15681614;28;19921;-50
2023/08/09 18:54:56;;;;;;;;;;;;;;;17.78;60.28;101288.97;15682007;28;20049;-49
2023/08/09 19:02:30;;;;;;;4.80;1.77;;;;;;;17.67;60.23;101301.47;15663962;28;19970;-51
2023/08/09 19:10:07;;;;;;;5.68;2.00;;;;;;;17.56;61.57;101302.38;15647310;28;20079;-48
2023/08/09 19:17:42;;;;;;;6.47;1.95;;;;;;;17.35;62.81;101320.16;15680914;28;20053;-47
2023/08/09 19:25:17;;;;;;;4.63;1.80;;;;;;;16.88;64.05;101309.44;15679644;28;20117;-48
2023/08/09 19:32:51;;;;;;;4.90;2.10;;;;;;;16.62;64.35;101318.84;15679327;28;20044;-50
2023/08/09 19:40:30;;;;;;;11.50;2.20;;;;;;;16.44;65.85;101336.03;15678862;28;20490;-50
2023/08/09 19:48:04;;;;;;;6.03;2.00;;;;;;;16.20;65.85;101343.31;15678861;28;20076;-47
2023/08/09 19:55:38;;;;;;;4.57;2.10;;;;;;;15.97;66.82;101338.66;15694460;28;20037;-47
2023/08/09 20:03:11;;;;;;;6.57;2.13;;;;;;;15.82;67.15;101347.22;15680265;28;20037;-47
2023/08/09 20:10:46;;;;;;;5.97;2.13;;;;;;;15.71;68.05;101353.38;15659098;28;20044;-48
2023/08/09 20:18:21;;;;;;;3.42;2.22;;;;;;;15.88;67.71;101363.59;15615409;28;20140;-49
2023/08/09 20:25:55;;;;;;;5.70;2.65;;;;;;;15.74;68.55;101373.78;15615256;28;20522;-49
2023/08/09 20:33:28;;;;;;;7.10;2.75;;;;;;;15.47;69.12;101376.78;15615252;28;20461;-48
2023/08/09 20:41:04;;;;;;;4.95;2.80;;;;;;;15.63;69.03;101379.94;15615284;28;20076;-50
2023/08/09 20:48:37;;;;;;;5.60;2.53;;;;;;;15.60;68.93;101389.31;15597165;28;20053;-52
2023/08/09 20:56:12;;;;;;;5.93;2.95;;;;;;;15.67;68.93;101389.28;15615418;28;20053;-51
2023/08/09 21:03:45;;;;;;;5.38;2.70;;;;;;;15.58;68.75;101391.44;15614358;28;20060;-50
2023/08/09 21:11:21;;;;;;;4.25;2.30;;;;;;;15.82;67.46;101382.41;15624627;28;20037;-50
2023/08/09 21:18:54;;;;;;;6.68;2.67;;;;;;;15.35;69.01;101392.13;15687993;28;20045;-50
2023/08/09 21:26:29;;;;;;;7.15;2.47;;;;;;;15.39;68.13;101403.31;15687216;28;20055;-49
2023/08/09 21:34:02;;;;;;;6.07;2.60;;;;;;;15.19;68.66;101398.13;15702767;28;20045;-49
2023/08/09 21:41:37;;;;;;;7.53;2.80;;;;;;;15.14;68.78;101406.91;15669195;28;20076;-48
2023/08/09 21:49:13;;;;;;;5.63;2.90;;;;;;;14.88;69.38;101409.91;15669228;28;20053;-48
2023/08/09 21:56:48;;;;;;;6.10;2.72;;;;;;;14.84;69.50;101401.41;15667932;28;20048;-49
2023/08/09 22:04:21;;;;;;;6.68;2.50;;;;;;;14.60;69.00;101413.06;15685097;28;20051;-49
2023/08/09 22:11:55;;;;;;;3.53;2.28;;;;;;;14.48;69.62;101421.84;15672467;28;20044;-48
2023/08/09 22:19:28;;;;;;;3.72;2.55;;;;;;;14.29;70.66;101415.50;15622042;28;20045;-47
2023/08/09 22:27:03;;;;;;;3.60;2.45;;;;;;;14.30;69.73;101430.66;15621243;28;20129;-48
2023/08/09 22:34:37;;;;;;;6.45;2.70;;;;;;;14.32;68.99;101429.66;15621520;28;20073;-47
2023/08/09 22:42:11;;;;;;;8.10;2.75;;;;;;;14.03;70.12;101445.38;15603447;28;20064;-48
2023/08/09 22:49:44;;;;;;;7.03;2.80;;;;;;;14.30;69.18;101448.75;15620431;28;20461;-47
2023/08/09 22:57:23;;;;;;;7.32;3.08;;;;;;;14.08;70.42;101461.72;15619914;28;20049;-47
2023/08/09 23:04:55;;;;;;;5.72;2.78;;;;;;;13.92;70.79;101464.94;15619363;28;20053;-47
2023/08/09 23:12:34;;;;;;;6.70;3.20;;;;;;;14.07;71.00;101473.59;15617757;28;20551;-49
2023/08/09 23:20:09;;;;;;;5.88;2.78;;;;;;;14.32;69.95;101467.44;15680353;28;20091;-48
2023/08/09 23:27:44;;;;;;;7.82;3.70;;;;;;;14.00;71.30;101473.63;15662742;28;20474;-49
2023/08/09 23:35:17;;;;;;;7.93;3.47;;;;;;;14.07;71.06;101467.38;15679823;28;20064;-48
2023/08/09 23:42:52;;;;;;;5.85;3.00;;;;;;;14.25;70.22;101468.28;15695491;28;20045;-47
2023/08/09 23:50:25;;;;;;;6.47;2.90;;;;;;;13.99;70.76;101471.16;15678862;28;20167;-49
2023/08/09 23:57:59;;;;;;;6.60;3.05;;;;;;;14.16;70.30;101469.59;15661645;28;20482;-48
